Time;durP1;ratioP1;P1;durP2;ratioP2;P2;SDS_P1;SDS_P2;PMS_P1;PMS_P2;Temp;Humidity;BMP_temperature;BMP_pressure;BME280_temperature;BME280_humidity;BME280_pressure;Samples;Min_cycle;Max_cycle;Signal;HPM_P1;HPM_P2
2022/01/15 00:00:54;;;;;;;;;;;;;;;;;;5022322;28;19921;-77
2022/01/15 00:03:19;;;;;;;;;;;;;;;;;;5015500;28;19923;-78
2022/01/15 00:05:45;;;;;;;;;;;;;;;;;;5019932;28;19917;-77
2022/01/15 00:08:11;;;;;;;;;;;;;;;;;;5021699;28;19916;-75
2022/01/15 00:10:37;;;;;;;;;;;;;;;;;;5023865;28;19913;-76
2022/01/15 00:13:03;;;;;;;;;;;;;;;;;;5024640;28;20365;-76
2022/01/15 00:15:37;;;;;;;;;;;;;;;;;;5021004;28;19921;-76
2022/01/15 00:18:11;;;;;;;;;;;;;;;;;;5022195;28;19932;-76
2022/01/15 00:20:37;;;;;;;;;;;;;;;;;;5024891;28;19917;-77
2022/01/15 00:23:03;;;;;;;;;;;;;;;;;;5023689;28;20160;-76
2022/01/15 00:25:29;;;;;;;;;;;;;;;;;;5019284;28;19956;-77
2022/01/15 00:27:55;;;;;;;;;;;;;;;;;;5024439;28;20011;-76
2022/01/15 00:30:21;;;;;;;;;;;;;;;;;;5021780;28;20007;-77
2022/01/15 00:32:46;;;;;;;;;;;;;;;;;;5023429;28;19923;-77
2022/01/15 00:35:13;;;;;;;;;;;;;;;;;;5021554;28;20258;-76
2022/01/15 00:37:39;;;;;;;;;;;;;;;;;;5024250;28;19943;-76
2022/01/15 00:40:05;;;;;;;;;;;;;;;;;;5020323;28;19928;-77
2022/01/15 00:42:33;;;;;;;;;;;;;;;;;;5020353;28;19922;-76
2022/01/15 00:45:00;;;;;;;;;;;;;;;;;;5020007;28;19924;-76
2022/01/15 00:47:31;;;;;;;;;;;;;;;;;;5023571;28;19917;-77
2022/01/15 00:49:56;;;;;;;;;;;;;;;;;;5022485;28;19928;-76
2022/01/15 00:52:22;;;;;;;;;;;;;;;;;;5023133;28;19913;-77
2022/01/15 00:54:48;;;;;;;;;;;;;;;;;;5020584;28;21312;-77
2022/01/15 00:57:14;;;;;;;;;;;;;;;;;;5020702;28;20004;-76
2022/01/15 00:59:40;;;;;;;;;;;;;;;;;;5020140;28;19924;-76
2022/01/15 01:02:06;;;;;;;;;;;;;;;;;;5022433;28;20016;-77
2022/01/15 01:04:32;;;;;;;;;;;;;;;;;;5019287;28;20512;-77
2022/01/15 01:06:57;;;;;;;;;;;;;;;;;;5022193;28;19921;-77
2022/01/15 01:09:29;;;;;;;;;;;;;;;;;;5016890;28;20008;-76
2022/01/15 01:11:59;;;;;;;;;;;;;;;;;;5020375;28;19917;-76
2022/01/15 01:20:19;;;;;;;;;;;;;;;;;;5021902;28;19924;-77
2022/01/15 01:25:10;;;;;;;;;;;;;;;;;;5021377;28;20340;-77
2022/01/15 01:27:47;;;;;;;;;;;;;;;;;;5035679;28;19923;-75
2022/01/15 01:30:22;;;;;;;;;;;;;;;;;;5020862;28;19927;-76
2022/01/15 01:33:14;;;;;;;;;;;;;;;;;;5040181;28;20404;-76
2022/01/15 01:35:44;;;;;;;;;;;;;;;;;;5019061;28;19921;-75
2022/01/15 01:38:16;;;;;;;;;;;;;;;;;;5021113;28;19945;-76
2022/01/15 01:40:45;;;;;;;;;;;;;;;;;;5022932;28;19917;-77
2022/01/15 01:45:47;;;;;;;;;;;;;;;;;;5025854;28;19921;-76
2022/01/15 01:48:13;;;;;;;;;;;;;;;;;;5019413;28;19928;-76
2022/01/15 01:50:39;;;;;;;;;;;;;;;;;;5022192;28;19917;-77
2022/01/15 01:53:05;;;;;;;;;;;;;;;;;;5024185;28;19917;-76
2022/01/15 01:55:31;;;;;;;;;;;;;;;;;;5020618;28;20292;-76
2022/01/15 01:57:57;;;;;;;;;;;;;;;;;;5018857;28;20047;-77
2022/01/15 02:00:23;;;;;;;;;;;;;;;;;;5017698;28;20312;-76
2022/01/15 02:02:49;;;;;;;;;;;;;;;;;;5023314;28;19924;-77
2022/01/15 02:05:15;;;;;;;;;;;;;;;;;;5023665;28;19917;-77
2022/01/15 02:07:41;;;;;;;;;;;;;;;;;;5025536;28;19932;-77
2022/01/15 02:10:08;;;;;;;;;;;;;;;;;;5028209;28;19921;-77
2022/01/15 02:12:34;;;;;;;;;;;;;;;;;;5023942;28;20373;-77
2022/01/15 02:15:00;;;;;;;;;;;;;;;;;;5021814;28;19924;-76
2022/01/15 02:17:26;;;;;;;;;;;;;;;;;;5025833;28;19917;-77
2022/01/15 02:25:12;;;;;;;;;;;;;;;;;;5024219;28;19979;-76
2022/01/15 02:27:38;;;;;;;;;;;;;;;;;;5024851;28;19925;-76
2022/01/15 02:30:04;;;;;;;;;;;;;;;;;;5023692;28;20455;-78
2022/01/15 02:32:29;;;;;;;;;;;;;;;;;;5025336;28;20274;-78
2022/01/15 02:34:57;;;;;;;;;;;;;;;;;;5020553;28;19924;-77
2022/01/15 02:37:23;;;;;;;;;;;;;;;;;;5017440;28;19917;-76
2022/01/15 02:39:49;;;;;;;;;;;;;;;;;;5024008;28;20111;-77
2022/01/15 02:42:15;;;;;;;;;;;;;;;;;;5024869;28;20225;-77
2022/01/15 02:44:42;;;;;;;;;;;;;;;;;;5023447;28;20416;-76
2022/01/15 02:49:34;;;;;;;;;;;;;;;;;;5024169;28;19917;-76
2022/01/15 02:52:00;;;;;;;;;;;;;;;;;;5022848;28;19920;-76
2022/01/15 02:54:26;;;;;;;;;;;;;;;;;;5026605;28;20420;-76
2022/01/15 02:56:52;;;;;;;;;;;;;;;;;;5023091;28;19917;-77
2022/01/15 02:59:18;;;;;;;;;;;;;;;;;;5025429;28;19978;-77
2022/01/15 03:01:44;;;;;;;;;;;;;;;;;;5023401;28;20005;-76
2022/01/15 03:04:10;;;;;;;;;;;;;;;;;;5023130;28;20396;-77
2022/01/15 03:06:36;;;;;;;;;;;;;;;;;;5022863;28;19959;-75
2022/01/15 03:09:01;;;;;;;;;;;;;;;;;;5024627;28;19929;-77
2022/01/15 03:11:28;;;;;;;;;;;;;;;;;;5021512;28;20472;-76
2022/01/15 03:13:54;;;;;;;;;;;;;;;;;;5023178;28;19917;-77
2022/01/15 03:16:20;;;;;;;;;;;;;;;;;;5023169;28;19924;-77
2022/01/15 03:18:46;;;;;;;;;;;;;;;;;;5022581;28;19921;-76
2022/01/15 03:21:12;;;;;;;;;;;;;;;;;;5024007;28;20277;-76
2022/01/15 03:23:37;;;;;;;;;;;;;;;;;;5021136;28;19963;-76
2022/01/15 03:26:03;;;;;;;;;;;;;;;;;;5022756;28;19913;-76
2022/01/15 03:28:29;;;;;;;;;;;;;;;;;;5024335;28;20403;-77
2022/01/15 03:30:55;;;;;;;;;;;;;;;;;;5024609;28;20395;-76
2022/01/15 03:33:21;;;;;;;;;;;;;;;;;;5022615;28;19940;-77
2022/01/15 03:35:47;;;;;;;;;;;;;;;;;;5023066;28;19917;-76
2022/01/15 03:38:13;;;;;;;;;;;;;;;;;;5022571;28;19913;-77
2022/01/15 03:40:39;;;;;;;;;;;;;;;;;;5023882;28;19917;-76
2022/01/15 03:43:04;;;;;;;;;;;;;;;;;;5024655;28;20044;-77
2022/01/15 03:45:30;;;;;;;;;;;;;;;;;;5023153;28;20012;-77
2022/01/15 03:47:59;;;;;;;;;;;;;;;;;;5023240;28;19928;-77
2022/01/15 03:50:25;;;;;;;;;;;;;;;;;;5023568;28;20004;-77
2022/01/15 03:52:51;;;;;;;;;;;;;;;;;;5022069;28;20008;-77
2022/01/15 03:55:17;;;;;;;;;;;;;;;;;;5023114;28;19921;-76
2022/01/15 03:57:42;;;;;;;;;;;;;;;;;;5021133;28;19917;-77
2022/01/15 04:00:10;;;;;;;;;;;;;;;;;;5025815;28;20413;-77
2022/01/15 04:02:35;;;;;;;;;;;;;;;;;;5023575;28;19917;-76
2022/01/15 04:05:01;;;;;;;;;;;;;;;;;;5021598;28;19913;-76
2022/01/15 04:07:27;;;;;;;;;;;;;;;;;;5021001;28;19917;-77
2022/01/15 04:09:53;;;;;;;;;;;;;;;;;;5021471;28;20356;-77
2022/01/15 04:12:19;;;;;;;;;;;;;;;;;;5025587;28;20011;-76
2022/01/15 04:14:45;;;;;;;;;;;;;;;;;;5015474;28;19913;-77
2022/01/15 04:17:11;;;;;;;;;;;;;;;;;;5022323;28;20308;-76
2022/01/15 04:19:39;;;;;;;;;;;;;;;;;;5023817;28;19947;-77
2022/01/15 04:22:05;;;;;;;;;;;;;;;;;;5022887;28;19921;-76
2022/01/15 04:24:31;;;;;;;;;;;;;;;;;;5024420;28;19921;-77
2022/01/15 04:26:57;;;;;;;;;;;;;;;;;;5023391;28;19917;-77
2022/01/15 04:29:23;;;;;;;;;;;;;;;;;;5021496;28;19972;-77
2022/01/15 04:31:50;;;;;;;;;;;;;;;;;;5038763;28;19921;-76
2022/01/15 04:34:16;;;;;;;;;;;;;;;;;;5019172;28;19942;-76
2022/01/15 04:36:43;;;;;;;;;;;;;;;;;;5015361;28;19996;-77
2022/01/15 04:39:09;;;;;;;;;;;;;;;;;;5025076;28;19924;-77
2022/01/15 04:41:35;;;;;;;;;;;;;;;;;;5026562;28;19917;-77
2022/01/15 04:44:01;;;;;;;;;;;;;;;;;;5026863;28;20004;-76
2022/01/15 04:46:27;;;;;;;;;;;;;;;;;;5023697;28;20016;-77
2022/01/15 04:48:53;;;;;;;;;;;;;;;;;;5024127;28;19921;-77
2022/01/15 04:51:18;;;;;;;;;;;;;;;;;;5015295;28;19917;-77
2022/01/15 04:53:44;;;;;;;;;;;;;;;;;;5019232;28;19966;-76
2022/01/15 04:56:10;;;;;;;;;;;;;;;;;;5022597;28;19917;-76
2022/01/15 04:58:36;;;;;;;;;;;;;;;;;;5022435;28;19956;-77
2022/01/15 05:01:02;;;;;;;;;;;;;;;;;;5020872;28;19913;-76
2022/01/15 05:03:28;;;;;;;;;;;;;;;;;;5023317;28;19920;-77
2022/01/15 05:05:54;;;;;;;;;;;;;;;;;;5019666;28;19924;-77
2022/01/15 05:08:19;;;;;;;;;;;;;;;;;;5021259;28;19917;-77
2022/01/15 05:10:47;;;;;;;;;;;;;;;;;;5017559;28;19960;-76
2022/01/15 05:13:21;;;;;;;;;;;;;;;;;;5023048;28;19951;-76
2022/01/15 05:15:47;;;;;;;;;;;;;;;;;;5023884;28;20360;-77
2022/01/15 05:18:13;;;;;;;;;;;;;;;;;;5020900;28;19913;-76
2022/01/15 05:20:43;;;;;;;;;;;;;;;;;;5023329;28;20007;-77
2022/01/15 05:23:09;;;;;;;;;;;;;;;;;;5021709;28;19913;-77
2022/01/15 05:25:35;;;;;;;;;;;;;;;;;;5022488;28;19933;-77
2022/01/15 05:28:01;;;;;;;;;;;;;;;;;;5020619;28;20021;-77
2022/01/15 05:30:30;;;;;;;;;;;;;;;;;;5022270;28;20402;-77
2022/01/15 05:32:56;;;;;;;;;;;;;;;;;;5022390;28;19917;-76
2022/01/15 05:35:26;;;;;;;;;;;;;;;;;;5021719;28;19917;-76
2022/01/15 05:37:51;;;;;;;;;;;;;;;;;;5023100;28;19921;-77
2022/01/15 05:40:17;;;;;;;;;;;;;;;;;;5024728;28;19917;-77
2022/01/15 05:42:43;;;;;;;;;;;;;;;;;;5026795;28;19921;-76
2022/01/15 05:45:09;;;;;;;;;;;;;;;;;;5026743;28;20003;-77
2022/01/15 05:47:35;;;;;;;;;;;;;;;;;;5029951;28;20017;-77
2022/01/15 05:50:01;;;;;;;;;;;;;;;;;;5035086;28;20301;-77
2022/01/15 05:52:27;;;;;;;;;;;;;;;;;;5025938;28;20016;-76
2022/01/15 05:54:52;;;;;;;;;;;;;;;;;;5025572;28;19967;-76
2022/01/15 05:57:18;;;;;;;;;;;;;;;;;;5025534;28;20266;-76
2022/01/15 05:59:45;;;;;;;;;;;;;;;;;;5020784;28;19924;-77
2022/01/15 06:02:10;;;;;;;;;;;;;;;;;;5019698;28;20383;-77
2022/01/15 06:04:36;;;;;;;;;;;;;;;;;;5023630;28;19917;-77
2022/01/15 06:07:02;;;;;;;;;;;;;;;;;;5024107;28;20347;-78
2022/01/15 06:09:28;;;;;;;;;;;;;;;;;;5026501;28;19917;-76
2022/01/15 06:11:57;;;;;;;;;;;;;;;;;;5027152;28;20335;-77
2022/01/15 06:14:23;;;;;;;;;;;;;;;;;;5022921;28;19929;-76
2022/01/15 06:16:49;;;;;;;;;;;;;;;;;;5026328;28;19917;-77
2022/01/15 06:19:15;;;;;;;;;;;;;;;;;;5024348;28;19921;-78
2022/01/15 06:21:40;;;;;;;;;;;;;;;;;;5027225;28;19939;-76
2022/01/15 06:24:06;;;;;;;;;;;;;;;;;;5025662;28;19917;-77
2022/01/15 06:26:32;;;;;;;;;;;;;;;;;;5026066;28;19917;-77
2022/01/15 06:28:58;;;;;;;;;;;;;;;;;;5024183;28;20223;-77
2022/01/15 06:31:25;;;;;;;;;;;;;;;;;;5023272;28;20436;-77
2022/01/15 06:33:51;;;;;;;;;;;;;;;;;;5018664;28;20382;-77
2022/01/15 06:36:17;;;;;;;;;;;;;;;;;;5023168;28;19924;-76
2022/01/15 06:38:43;;;;;;;;;;;;;;;;;;5026277;28;20366;-77
2022/01/15 06:41:09;;;;;;;;;;;;;;;;;;5026103;28;19917;-76
2022/01/15 06:43:35;;;;;;;;;;;;;;;;;;5025338;28;20098;-77
2022/01/15 06:46:01;;;;;;;;;;;;;;;;;;5025108;28;19921;-76
2022/01/15 06:48:28;;;;;;;;;;;;;;;;;;5024486;28;20350;-77
2022/01/15 06:50:54;;;;;;;;;;;;;;;;;;5023730;28;20227;-77
2022/01/15 06:53:20;;;;;;;;;;;;;;;;;;5028111;28;20077;-76
2022/01/15 06:55:49;;;;;;;;;;;;;;;;;;5025881;28;20008;-76
2022/01/15 06:58:15;;;;;;;;;;;;;;;;;;5028227;28;20484;-76
2022/01/15 07:00:41;;;;;;;;;;;;;;;;;;5029497;28;20336;-76
2022/01/15 07:03:07;;;;;;;;;;;;;;;;;;5025523;28;19917;-76
2022/01/15 07:05:33;;;;;;;;;;;;;;;;;;5025752;28;19913;-76
2022/01/15 07:07:59;;;;;;;;;;;;;;;;;;5028003;28;19917;-77
2022/01/15 07:10:25;;;;;;;;;;;;;;;;;;5029360;28;19940;-76
2022/01/15 07:12:50;;;;;;;;;;;;;;;;;;5028501;28;20391;-76
2022/01/15 07:15:16;;;;;;;;;;;;;;;;;;5026897;28;19959;-77
2022/01/15 07:17:42;;;;;;;;;;;;;;;;;;5028043;28;20328;-77
2022/01/15 07:20:08;;;;;;;;;;;;;;;;;;5022227;28;19917;-77
2022/01/15 07:22:34;;;;;;;;;;;;;;;;;;5029753;28;19913;-76
2022/01/15 07:25:00;;;;;;;;;;;;;;;;;;5018602;28;19928;-76
2022/01/15 07:27:26;;;;;;;;;;;;;;;;;;5028266;28;19925;-77
2022/01/15 07:29:52;;;;;;;;;;;;;;;;;;5009735;28;19928;-76
2022/01/15 07:32:18;;;;;;;;;;;;;;;;;;5016376;28;19909;-76
2022/01/15 07:34:44;;;;;;;;;;;;;;;;;;5013129;28;19965;-76
2022/01/15 07:37:10;;;;;;;;;;;;;;;;;;5017643;28;19913;-77
2022/01/15 07:39:35;;;;;;;;;;;;;;;;;;5024195;28;19959;-77
2022/01/15 07:42:01;;;;;;;;;;;;;;;;;;5023000;28;19921;-77
2022/01/15 07:44:27;;;;;;;;;;;;;;;;;;5028122;28;19914;-75
2022/01/15 07:46:54;;;;;;;;;;;;;;;;;;5026537;28;20468;-76
2022/01/15 07:49:20;;;;;;;;;;;;;;;;;;5028106;28;19913;-76
2022/01/15 07:51:46;;;;;;;;;;;;;;;;;;5028396;28;19989;-76
2022/01/15 07:54:12;;;;;;;;;;;;;;;;;;5026171;28;19959;-76
2022/01/15 07:56:37;;;;;;;;;;;;;;;;;;5026010;28;19916;-77
2022/01/15 07:59:03;;;;;;;;;;;;;;;;;;5025815;28;20396;-77
2022/01/15 08:01:29;;;;;;;;;;;;;;;;;;5027832;28;19920;-77
2022/01/15 08:03:55;;;;;;;;;;;;;;;;;;5024651;28;20468;-76
2022/01/15 08:06:21;;;;;;;;;;;;;;;;;;5026148;28;20020;-77
2022/01/15 08:08:47;;;;;;;;;;;;;;;;;;5027481;28;19909;-77
2022/01/15 08:11:13;;;;;;;;;;;;;;;;;;5027671;28;19913;-77
2022/01/15 08:13:39;;;;;;;;;;;;;;;;;;5027539;28;20360;-76
2022/01/15 08:16:05;;;;;;;;;;;;;;;;;;5027727;28;19909;-76
2022/01/15 08:18:31;;;;;;;;;;;;;;;;;;5027566;28;19913;-77
2022/01/15 08:20:57;;;;;;;;;;;;;;;;;;5027571;28;20117;-76
2022/01/15 08:23:23;;;;;;;;;;;;;;;;;;5025569;28;20369;-76
2022/01/15 08:25:49;;;;;;;;;;;;;;;;;;5025782;28;19920;-77
2022/01/15 08:28:16;;;;;;;;;;;;;;;;;;5027051;28;20059;-76
2022/01/15 08:30:42;;;;;;;;;;;;;;;;;;5025592;28;19952;-75
2022/01/15 08:33:08;;;;;;;;;;;;;;;;;;5014781;28;20456;-75
2022/01/15 08:35:34;;;;;;;;;;;;;;;;;;5005853;28;19913;-76
2022/01/15 08:38:02;;;;;;;;;;;;;;;;;;5007247;28;19948;-76
2022/01/15 08:40:28;;;;;;;;;;;;;;;;;;5023158;28;19910;-76
2022/01/15 08:42:54;;;;;;;;;;;;;;;;;;5025878;28;20344;-76
2022/01/15 08:45:20;;;;;;;;;;;;;;;;;;5026703;28;19909;-76
2022/01/15 08:47:45;;;;;;;;;;;;;;;;;;5025662;28;20304;-77
2022/01/15 08:50:11;;;;;;;;;;;;;;;;;;5025572;28;19920;-77
2022/01/15 08:52:37;;;;;;;;;;;;;;;;;;5026497;28;20349;-76
2022/01/15 08:55:03;;;;;;;;;;;;;;;;;;5026294;28;19921;-76
2022/01/15 08:57:29;;;;;;;;;;;;;;;;;;5025463;28;19909;-76
2022/01/15 08:59:55;;;;;;;;;;;;;;;;;;5027457;28;19999;-76
2022/01/15 09:02:21;;;;;;;;;;;;;;;;;;5025611;28;19917;-76
2022/01/15 09:04:47;;;;;;;;;;;;;;;;;;5025442;28;20357;-76
2022/01/15 09:07:12;;;;;;;;;;;;;;;;;;5014242;28;20016;-76
2022/01/15 09:09:38;;;;;;;;;;;;;;;;;;5007441;28;19924;-76
2022/01/15 09:12:04;;;;;;;;;;;;;;;;;;5011238;28;20321;-76
2022/01/15 09:14:30;;;;;;;;;;;;;;;;;;5026015;28;19915;-76
2022/01/15 09:16:56;;;;;;;;;;;;;;;;;;5030612;28;19920;-77
2022/01/15 09:19:22;;;;;;;;;;;;;;;;;;5029501;28;19909;-76
2022/01/15 09:21:48;;;;;;;;;;;;;;;;;;5030832;28;19909;-77
2022/01/15 09:24:14;;;;;;;;;;;;;;;;;;5030303;28;19967;-76
2022/01/15 09:32:05;;;;;;;;;;;;;;;;;;5031766;28;19916;-77
2022/01/15 09:34:34;;;;;;;;;;;;;;;;;;5029187;28;20373;-75
2022/01/15 09:37:00;;;;;;;;;;;;;;;;;;5030144;28;20106;-77
2022/01/15 09:39:25;;;;;;;;;;;;;;;;;;5029657;28;19915;-76
2022/01/15 09:41:54;;;;;;;;;;;;;;;;;;5012776;28;19917;-77
2022/01/15 09:44:20;;;;;;;;;;;;;;;;;;5011436;28;19917;-76
2022/01/15 09:46:46;;;;;;;;;;;;;;;;;;5011722;28;20064;-77
2022/01/15 09:49:12;;;;;;;;;;;;;;;;;;5011839;28;19921;-77
2022/01/15 09:51:38;;;;;;;;;;;;;;;;;;5011556;28;19921;-77
2022/01/15 09:54:04;;;;;;;;;;;;;;;;;;5026024;28;20317;-77
2022/01/15 09:56:30;;;;;;;;;;;;;;;;;;5026861;28;19940;-76
2022/01/15 09:59:00;;;;;;;;;;;;;;;;;;5029413;28;20168;-77
2022/01/15 10:01:25;;;;;;;;;;;;;;;;;;5029522;28;19909;-76
2022/01/15 10:03:51;;;;;;;;;;;;;;;;;;5028744;28;19923;-76
2022/01/15 10:06:17;;;;;;;;;;;;;;;;;;5030420;28;19909;-76
2022/01/15 10:08:43;;;;;;;;;;;;;;;;;;5030823;28;19945;-77
2022/01/15 10:11:11;;;;;;;;;;;;;;;;;;5029561;28;19909;-75
2022/01/15 10:13:39;;;;;;;;;;;;;;;;;;5022469;28;19940;-77
2022/01/15 10:16:05;;;;;;;;;;;;;;;;;;5044702;28;20118;-76
2022/01/15 10:18:31;;;;;;;;;;;;;;;;;;5028926;28;19937;-76
2022/01/15 10:20:57;;;;;;;;;;;;;;;;;;5029298;28;20201;-76
2022/01/15 10:23:23;;;;;;;;;;;;;;;;;;5029552;28;19913;-76
2022/01/15 10:25:49;;;;;;;;;;;;;;;;;;5029025;28;19909;-76
2022/01/15 10:28:14;;;;;;;;;;;;;;;;;;5029008;28;19913;-77
2022/01/15 10:30:42;;;;;;;;;;;;;;;;;;5030562;28;19913;-76
2022/01/15 10:33:08;;;;;;;;;;;;;;;;;;5010076;28;19916;-77
2022/01/15 10:35:33;;;;;;;;;;;;;;;;;;5024443;28;19917;-77
2022/01/15 10:37:59;;;;;;;;;;;;;;;;;;5026045;28;19945;-77
2022/01/15 10:40:27;;;;;;;;;;;;;;;;;;5025679;28;19909;-76
2022/01/15 10:42:54;;;;;;;;;;;;;;;;;;5028969;28;20015;-77
2022/01/15 10:45:20;;;;;;;;;;;;;;;;;;5028484;28;20328;-77
2022/01/15 10:47:50;;;;;;;;;;;;;;;;;;5029062;28;19913;-75
2022/01/15 10:50:15;;;;;;;;;;;;;;;;;;5030240;28;20365;-76
2022/01/15 10:52:41;;;;;;;;;;;;;;;;;;5028636;28;19960;-76
2022/01/15 10:55:07;;;;;;;;;;;;;;;;;;5028836;28;20377;-78
2022/01/15 10:57:33;;;;;;;;;;;;;;;;;;5028997;28;19963;-76
2022/01/15 10:59:59;;;;;;;;;;;;;;;;;;5028591;28;19914;-77
2022/01/15 11:02:25;;;;;;;;;;;;;;;;;;5030323;28;20012;-76
2022/01/15 11:04:51;;;;;;;;;;;;;;;;;;5026928;28;19956;-76
2022/01/15 11:07:17;;;;;;;;;;;;;;;;;;5028535;28;19948;-77
2022/01/15 11:09:43;;;;;;;;;;;;;;;;;;5028304;28;19956;-77
2022/01/15 11:12:09;;;;;;;;;;;;;;;;;;5030152;28;19917;-76
2022/01/15 11:14:35;;;;;;;;;;;;;;;;;;5029272;28;19916;-76
2022/01/15 11:17:01;;;;;;;;;;;;;;;;;;5029916;28;20381;-76
2022/01/15 11:19:27;;;;;;;;;;;;;;;;;;5029459;28;20055;-76
2022/01/15 11:21:52;;;;;;;;;;;;;;;;;;5029494;28;20015;-77
2022/01/15 11:24:18;;;;;;;;;;;;;;;;;;5029496;28;19937;-77
2022/01/15 11:26:44;;;;;;;;;;;;;;;;;;5029913;28;19917;-76
2022/01/15 11:29:10;;;;;;;;;;;;;;;;;;5029751;28;20368;-76
2022/01/15 11:31:36;;;;;;;;;;;;;;;;;;5029319;28;19909;-76
2022/01/15 11:34:02;;;;;;;;;;;;;;;;;;5026556;28;19916;-77
2022/01/15 11:36:28;;;;;;;;;;;;;;;;;;5029333;28;20410;-76
2022/01/15 11:38:54;;;;;;;;;;;;;;;;;;5029316;28;19913;-76
2022/01/15 11:41:19;;;;;;;;;;;;;;;;;;5029184;28;19909;-77
2022/01/15 11:43:47;;;;;;;;;;;;;;;;;;5029632;28;19917;-77
2022/01/15 11:46:13;;;;;;;;;;;;;;;;;;5027739;28;19909;-76
2022/01/15 11:48:38;;;;;;;;;;;;;;;;;;5029279;28;20542;-75
2022/01/15 11:51:04;;;;;;;;;;;;;;;;;;5027643;28;19909;-76
2022/01/15 11:53:30;;;;;;;;;;;;;;;;;;5029021;28;19964;-76
2022/01/15 11:55:56;;;;;;;;;;;;;;;;;;5027806;28;20265;-76
2022/01/15 11:58:23;;;;;;;;;;;;;;;;;;5029119;28;19920;-76
2022/01/15 12:00:49;;;;;;;;;;;;;;;;;;5029273;28;19913;-77
2022/01/15 12:03:16;;;;;;;;;;;;;;;;;;5028931;28;20325;-76
2022/01/15 12:05:42;;;;;;;;;;;;;;;;;;5027098;28;20000;-77
2022/01/15 12:08:09;;;;;;;;;;;;;;;;;;5027324;28;20000;-75
2022/01/15 12:10:34;;;;;;;;;;;;;;;;;;5027815;28;19909;-77
2022/01/15 12:13:00;;;;;;;;;;;;;;;;;;5027343;28;19916;-76
2022/01/15 12:15:26;;;;;;;;;;;;;;;;;;5027031;28;19917;-77
2022/01/15 12:17:53;;;;;;;;;;;;;;;;;;5026892;28;20288;-75
2022/01/15 12:20:25;;;;;;;;;;;;;;;;;;5026996;28;19909;-76
2022/01/15 12:22:51;;;;;;;;;;;;;;;;;;5026634;28;19940;-76
2022/01/15 12:25:17;;;;;;;;;;;;;;;;;;5026995;28;19910;-76
2022/01/15 12:27:43;;;;;;;;;;;;;;;;;;5027423;28;20464;-75
2022/01/15 12:30:11;;;;;;;;;;;;;;;;;;5028402;28;19972;-77
2022/01/15 12:32:38;;;;;;;;;;;;;;;;;;5026957;28;19917;-76
2022/01/15 12:35:04;;;;;;;;;;;;;;;;;;5025281;28;19916;-76
2022/01/15 12:37:30;;;;;;;;;;;;;;;;;;5027003;28;19913;-76
2022/01/15 12:39:56;;;;;;;;;;;;;;;;;;5028106;28;19909;-77
2022/01/15 12:42:23;;;;;;;;;;;;;;;;;;5026679;28;20389;-76
2022/01/15 12:44:49;;;;;;;;;;;;;;;;;;5027793;28;20245;-77
2022/01/15 12:47:15;;;;;;;;;;;;;;;;;;5023349;28;20004;-76
2022/01/15 12:49:41;;;;;;;;;;;;;;;;;;5008371;28;20435;-76
2022/01/15 12:52:07;;;;;;;;;;;;;;;;;;5008349;28;20036;-77
2022/01/15 12:54:33;;;;;;;;;;;;;;;;;;5007908;28;19965;-76
2022/01/15 12:56:58;;;;;;;;;;;;;;;;;;5023014;28;20325;-77
2022/01/15 12:59:24;;;;;;;;;;;;;;;;;;5008658;28;19910;-77
2022/01/15 13:01:50;;;;;;;;;;;;;;;;;;5023783;28;19909;-76
2022/01/15 13:04:16;;;;;;;;;;;;;;;;;;5011304;28;20648;-77
2022/01/15 13:06:45;;;;;;;;;;;;;;;;;;5026401;28;19920;-77
2022/01/15 13:09:11;;;;;;;;;;;;;;;;;;5026229;28;19917;-77
2022/01/15 13:11:39;;;;;;;;;;;;;;;;;;5026447;28;19909;-76
2022/01/15 13:14:07;;;;;;;;;;;;;;;;;;5028446;28;19909;-78
2022/01/15 13:16:33;;;;;;;;;;;;;;;;;;5027641;28;20469;-76
2022/01/15 13:19:02;;;;;;;;;;;;;;;;;;5026462;28;20312;-77
2022/01/15 13:21:28;;;;;;;;;;;;;;;;;;5027733;28;19917;-77
2022/01/15 13:23:53;;;;;;;;;;;;;;;;;;5027838;28;19917;-76
2022/01/15 13:26:19;;;;;;;;;;;;;;;;;;5027736;28;20290;-77
2022/01/15 13:28:45;;;;;;;;;;;;;;;;;;5027814;28;19913;-77
2022/01/15 13:31:11;;;;;;;;;;;;;;;;;;5027739;28;20373;-77
2022/01/15 13:33:37;;;;;;;;;;;;;;;;;;5026627;28;19949;-76
2022/01/15 13:36:03;;;;;;;;;;;;;;;;;;5024462;28;19916;-77
2022/01/15 13:38:29;;;;;;;;;;;;;;;;;;5025976;28;19948;-76
2022/01/15 13:40:55;;;;;;;;;;;;;;;;;;5026177;28;19909;-77
2022/01/15 13:43:20;;;;;;;;;;;;;;;;;;5027908;28;19909;-76
2022/01/15 13:45:46;;;;;;;;;;;;;;;;;;5025960;28;20000;-75
2022/01/15 13:48:12;;;;;;;;;;;;;;;;;;5025995;28;20344;-76
2022/01/15 13:53:23;;;;;;;;;;;;;;;;;;5027394;28;20208;-75
2022/01/15 13:55:49;;;;;;;;;;;;;;;;;;5025934;28;20000;-76
2022/01/15 13:58:15;;;;;;;;;;;;;;;;;;5029619;28;19959;-77
2022/01/15 14:00:41;;;;;;;;;;;;;;;;;;5029524;28;20333;-76
2022/01/15 14:03:06;;;;;;;;;;;;;;;;;;5029703;28;20016;-76
2022/01/15 14:05:32;;;;;;;;;;;;;;;;;;5029104;28;20000;-76
2022/01/15 14:07:58;;;;;;;;;;;;;;;;;;5029921;28;20321;-77
2022/01/15 14:10:25;;;;;;;;;;;;;;;;;;5029462;28;19909;-76
2022/01/15 14:12:51;;;;;;;;;;;;;;;;;;5030821;28;20281;-76
2022/01/15 14:15:17;;;;;;;;;;;;;;;;;;5029500;28;19910;-76
2022/01/15 14:17:43;;;;;;;;;;;;;;;;;;5029630;28;20344;-76
2022/01/15 14:22:38;;;;;;;;;;;;;;;;;;5030969;28;19909;-77
2022/01/15 14:25:04;;;;;;;;;;;;;;;;;;5029516;28;19939;-77
2022/01/15 14:27:30;;;;;;;;;;;;;;;;;;5029310;28;19912;-76
2022/01/15 14:29:56;;;;;;;;;;;;;;;;;;5019829;28;19909;-77
2022/01/15 14:32:22;;;;;;;;;;;;;;;;;;5025950;28;20023;-77
2022/01/15 14:34:47;;;;;;;;;;;;;;;;;;5024027;28;20001;-76
2022/01/15 14:37:13;;;;;;;;;;;;;;;;;;5010552;28;20001;-77
2022/01/15 14:39:41;;;;;;;;;;;;;;;;;;5010986;28;20448;-77
2022/01/15 14:42:06;;;;;;;;;;;;;;;;;;5010841;28;19910;-76
2022/01/15 14:44:32;;;;;;;;;;;;;;;;;;5025580;28;19975;-76
2022/01/15 14:46:58;;;;;;;;;;;;;;;;;;5020447;28;19913;-76
2022/01/15 14:49:24;;;;;;;;;;;;;;;;;;5028653;28;19913;-77
2022/01/15 14:51:50;;;;;;;;;;;;;;;;;;5026901;28;20281;-77
2022/01/15 14:54:16;;;;;;;;;;;;;;;;;;5026801;28;19921;-77
2022/01/15 14:56:42;;;;;;;;;;;;;;;;;;5028892;28;19925;-77
2022/01/15 14:59:08;;;;;;;;;;;;;;;;;;5029357;28;19971;-76
2022/01/15 15:01:34;;;;;;;;;;;;;;;;;;5029959;28;19944;-76
2022/01/15 15:04:04;;;;;;;;;;;;;;;;;;5020907;28;20514;-77
2022/01/15 15:06:30;;;;;;;;;;;;;;;;;;5028406;28;19913;-76
2022/01/15 15:08:56;;;;;;;;;;;;;;;;;;5026587;28;19952;-76
2022/01/15 15:11:22;;;;;;;;;;;;;;;;;;5027502;28;20431;-76
2022/01/15 15:13:48;;;;;;;;;;;;;;;;;;5026919;28;19921;-77
2022/01/15 15:16:14;;;;;;;;;;;;;;;;;;5029355;28;20463;-76
2022/01/15 15:18:40;;;;;;;;;;;;;;;;;;5026495;28;19913;-75
2022/01/15 15:21:07;;;;;;;;;;;;;;;;;;5025407;28;19919;-76
2022/01/15 15:23:33;;;;;;;;;;;;;;;;;;5023242;28;20374;-77
2022/01/15 15:25:59;;;;;;;;;;;;;;;;;;5025323;28;19917;-76
2022/01/15 15:28:24;;;;;;;;;;;;;;;;;;5026017;28;20362;-76
2022/01/15 15:30:50;;;;;;;;;;;;;;;;;;5027864;28;19960;-77
2022/01/15 15:33:16;;;;;;;;;;;;;;;;;;5027598;28;19917;-77
2022/01/15 15:35:42;;;;;;;;;;;;;;;;;;5030547;28;20337;-76
2022/01/15 15:38:08;;;;;;;;;;;;;;;;;;5032341;28;19909;-77
2022/01/15 15:40:37;;;;;;;;;;;;;;;;;;5030931;28;19996;-76
2022/01/15 15:43:03;;;;;;;;;;;;;;;;;;5031741;28;19950;-76
2022/01/15 15:45:29;;;;;;;;;;;;;;;;;;5032003;28;19960;-75
2022/01/15 15:47:55;;;;;;;;;;;;;;;;;;5032540;28;19917;-76
2022/01/15 15:50:20;;;;;;;;;;;;;;;;;;5031925;28;19960;-77
2022/01/15 15:53:05;;;;;;;;;;;;;;;;;;5030630;28;19909;-76
2022/01/15 15:55:31;;;;;;;;;;;;;;;;;;4991169;28;19932;-76
2022/01/15 15:57:57;;;;;;;;;;;;;;;;;;4991771;28;20274;-76
2022/01/15 16:00:23;;;;;;;;;;;;;;;;;;4992960;28;20337;-76
2022/01/15 16:02:49;;;;;;;;;;;;;;;;;;4978860;28;20625;-76
2022/01/15 16:05:15;;;;;;;;;;;;;;;;;;4992663;28;19914;-77
2022/01/15 16:07:41;;;;;;;;;;;;;;;;;;4990679;28;20342;-76
2022/01/15 16:10:07;;;;;;;;;;;;;;;;;;4992287;28;19946;-76
2022/01/15 16:12:32;;;;;;;;;;;;;;;;;;4989038;28;19913;-77
2022/01/15 16:14:58;;;;;;;;;;;;;;;;;;4989264;28;19914;-78
2022/01/15 16:17:26;;;;;;;;;;;;;;;;;;4988844;28;19914;-76
2022/01/15 16:19:52;;;;;;;;;;;;;;;;;;4989268;28;19944;-77
2022/01/15 16:22:18;;;;;;;;;;;;;;;;;;4988423;28;19989;-76
2022/01/15 16:24:45;;;;;;;;;;;;;;;;;;4991822;28;20378;-77
2022/01/15 16:27:13;;;;;;;;;;;;;;;;;;4988707;28;20374;-76
2022/01/15 16:32:28;;;;;;;;;;;;;;;;;;4984805;28;19957;-77
2022/01/15 16:34:54;;;;;;;;;;;;;;;;;;4985340;28;20579;-77
2022/01/15 16:37:21;;;;;;;;;;;;;;;;;;4982155;28;19914;-77
2022/01/15 16:39:47;;;;;;;;;;;;;;;;;;4983189;28;19910;-76
2022/01/15 16:42:13;;;;;;;;;;;;;;;;;;4995697;28;20297;-77
2022/01/15 16:44:39;;;;;;;;;;;;;;;;;;4987368;28;19914;-77
2022/01/15 16:47:05;;;;;;;;;;;;;;;;;;4986004;28;19920;-76
2022/01/15 16:49:31;;;;;;;;;;;;;;;;;;4982998;28;19960;-76
2022/01/15 16:51:57;;;;;;;;;;;;;;;;;;4975419;28;20150;-76
2022/01/15 16:54:23;;;;;;;;;;;;;;;;;;5006817;28;20208;-77
2022/01/15 16:56:51;;;;;;;;;;;;;;;;;;5026837;28;20431;-76
2022/01/15 16:59:18;;;;;;;;;;;;;;;;;;5026079;28;20281;-76
2022/01/15 17:01:44;;;;;;;;;;;;;;;;;;5025674;28;19988;-76
2022/01/15 17:04:10;;;;;;;;;;;;;;;;;;5025619;28;20008;-76
2022/01/15 17:06:36;;;;;;;;;;;;;;;;;;5020553;28;19920;-77
2022/01/15 17:09:01;;;;;;;;;;;;;;;;;;5025162;28;20052;-76
2022/01/15 17:11:27;;;;;;;;;;;;;;;;;;5026875;28;19959;-77